Time;durP1;ratioP1;P1;durP2;ratioP2;P2;SDS_P1;SDS_P2;PMS_P1;PMS_P2;Temp;Humidity;BMP_temperature;BMP_pressure;BME280_temperature;BME280_humidity;BME280_pressure;Samples;Min_cycle;Max_cycle;Signal;HPM_P1;HPM_P2
2022/03/14 00:00:15;;;;;;;;;;;5.80;63.20;;;;;;4994281;28;19917;-73
2022/03/14 00:02:41;;;;;;;;;;;5.80;63.20;;;;;;4993980;28;19910;-71
2022/03/14 00:05:06;;;;;;;;;;;5.80;63.10;;;;;;4993909;28;20282;-71
2022/03/14 00:07:36;;;;;;;;;;;5.80;63.30;;;;;;4994310;28;19910;-67
2022/03/14 00:10:03;;;;;;;;;;;5.80;63.30;;;;;;4994171;28;20394;-72
2022/03/14 00:12:31;;;;;;;;;;;5.90;62.90;;;;;;4994020;28;19910;-73
2022/03/14 00:14:58;;;;;;;;;;;5.80;63.00;;;;;;4997151;28;19910;-73
2022/03/14 00:17:25;;;;;;;;;;;5.80;62.90;;;;;;4997809;28;20373;-71
2022/03/14 00:19:51;;;;;;;;;;;5.80;63.20;;;;;;5000791;28;19910;-73
2022/03/14 00:22:18;;;;;;;;;;;5.70;63.40;;;;;;5000831;28;20392;-69
2022/03/14 00:24:43;;;;;;;;;;;5.60;63.70;;;;;;4997820;28;19918;-71
2022/03/14 00:27:09;;;;;;;;;;;5.60;64.50;;;;;;4997696;28;19963;-68
2022/03/14 00:29:34;;;;;;;;;;;5.50;65.00;;;;;;4997809;28;19910;-65
2022/03/14 00:32:00;;;;;;;;;;;5.70;64.40;;;;;;4997513;28;19909;-67
2022/03/14 00:34:27;;;;;;;;;;;5.80;64.10;;;;;;4997336;28;19917;-68
2022/03/14 00:36:53;;;;;;;;;;;5.70;64.10;;;;;;4997447;28;19922;-69
2022/03/14 00:39:19;;;;;;;;;;;5.60;64.70;;;;;;4997578;28;20017;-69
2022/03/14 00:41:44;;;;;;;;;;;5.40;65.10;;;;;;4997153;28;20423;-66
2022/03/14 00:44:12;;;;;;;;;;;5.40;65.50;;;;;;4997261;28;20293;-63
2022/03/14 00:46:39;;;;;;;;;;;5.40;65.40;;;;;;4997127;28;20362;-69
2022/03/14 00:49:04;;;;;;;;;;;5.40;65.40;;;;;;4995875;28;19960;-67
2022/03/14 00:51:30;;;;;;;;;;;5.50;65.40;;;;;;4997262;28;19950;-70
2022/03/14 00:53:55;;;;;;;;;;;5.40;65.50;;;;;;4997147;28;19933;-71
2022/03/14 00:56:21;;;;;;;;;;;5.40;65.40;;;;;;4997020;28;19910;-63
2022/03/14 00:58:47;;;;;;;;;;;5.50;65.20;;;;;;4997127;28;19956;-68
2022/03/14 01:01:12;;;;;;;;;;;5.40;65.10;;;;;;4996599;28;20358;-61
2022/03/14 01:03:38;;;;;;;;;;;5.40;65.60;;;;;;4997177;28;20004;-65
2022/03/14 01:06:03;;;;;;;;;;;5.30;66.00;;;;;;4996856;28;19913;-63
2022/03/14 01:08:29;;;;;;;;;;;5.30;66.50;;;;;;4996807;28;19910;-67
2022/03/14 01:10:54;;;;;;;;;;;5.20;66.30;;;;;;4996771;28;20341;-64
2022/03/14 01:13:20;;;;;;;;;;;5.10;66.60;;;;;;4996709;28;20434;-67
2022/03/14 01:15:47;;;;;;;;;;;5.10;67.20;;;;;;4995392;28;20297;-58
2022/03/14 01:18:13;;;;;;;;;;;5.10;67.30;;;;;;4996819;28;19992;-58
2022/03/14 01:20:39;;;;;;;;;;;5.10;67.00;;;;;;4996840;28;20255;-59
2022/03/14 01:23:05;;;;;;;;;;;5.20;66.40;;;;;;4995139;28;19977;-64
2022/03/14 01:25:30;;;;;;;;;;;5.30;66.20;;;;;;4996529;28;19964;-58
2022/03/14 01:27:56;;;;;;;;;;;5.30;66.20;;;;;;4996582;28;19910;-59
2022/03/14 01:30:22;;;;;;;;;;;5.30;66.40;;;;;;4996296;28;19914;-59
2022/03/14 01:32:48;;;;;;;;;;;5.20;66.60;;;;;;4996219;28;19953;-58
2022/03/14 01:35:17;;;;;;;;;;;5.10;67.00;;;;;;4996433;28;19914;-59
2022/03/14 01:37:43;;;;;;;;;;;5.10;67.10;;;;;;4996318;28;19921;-61
2022/03/14 01:40:09;;;;;;;;;;;5.00;67.70;;;;;;4996234;28;20322;-58
2022/03/14 01:42:35;;;;;;;;;;;5.00;67.80;;;;;;4996058;28;19964;-62
2022/03/14 01:45:01;;;;;;;;;;;4.90;67.90;;;;;;4996092;28;19914;-57
2022/03/14 01:47:28;;;;;;;;;;;4.90;68.00;;;;;;4996275;28;19917;-59
2022/03/14 01:49:53;;;;;;;;;;;4.80;68.90;;;;;;4996189;28;19920;-59
2022/03/14 01:52:20;;;;;;;;;;;4.80;68.20;;;;;;4995803;28;19910;-57
2022/03/14 01:54:47;;;;;;;;;;;4.70;68.60;;;;;;4996014;28;19909;-59
2022/03/14 01:57:15;;;;;;;;;;;4.70;68.70;;;;;;4996233;28;20273;-59
2022/03/14 01:59:41;;;;;;;;;;;4.70;68.70;;;;;;4995718;28;19937;-59
2022/03/14 02:02:07;;;;;;;;;;;4.90;68.60;;;;;;4995592;28;19918;-59
2022/03/14 02:04:33;;;;;;;;;;;5.20;67.60;;;;;;4995643;28;19910;-57
2022/03/14 02:06:58;;;;;;;;;;;5.20;66.60;;;;;;4995664;28;20376;-57
2022/03/14 02:09:24;;;;;;;;;;;5.30;66.00;;;;;;4995854;28;19909;-58
2022/03/14 02:12:10;;;;;;;;;;;5.40;65.50;;;;;;4995603;28;20009;-59
2022/03/14 02:14:39;;;;;;;;;;;5.40;65.40;;;;;;4995469;28;19910;-59
2022/03/14 02:17:09;;;;;;;;;;;5.40;65.60;;;;;;4995751;28;19910;-58
2022/03/14 02:19:35;;;;;;;;;;;5.40;65.40;;;;;;4995646;28;19964;-57
2022/03/14 02:22:01;;;;;;;;;;;5.50;65.10;;;;;;4995253;28;20369;-57
2022/03/14 02:24:30;;;;;;;;;;;5.50;65.00;;;;;;4995443;28;20350;-58
2022/03/14 02:26:56;;;;;;;;;;;5.50;65.10;;;;;;4995695;28;19913;-58
2022/03/14 02:29:22;;;;;;;;;;;5.60;64.80;;;;;;4995316;28;20265;-57
2022/03/14 02:31:48;;;;;;;;;;;5.60;64.20;;;;;;4995343;28;20382;-57
2022/03/14 02:34:14;;;;;;;;;;;5.70;64.10;;;;;;4995317;28;19917;-57
2022/03/14 02:36:39;;;;;;;;;;;5.70;64.00;;;;;;4994413;28;20390;-58
2022/03/14 02:39:06;;;;;;;;;;;5.80;64.00;;;;;;4994910;28;20373;-60
2022/03/14 02:41:32;;;;;;;;;;;5.70;64.10;;;;;;4994831;28;19922;-58
2022/03/14 02:43:59;;;;;;;;;;;5.70;64.30;;;;;;4995189;28;19956;-57
2022/03/14 02:46:25;;;;;;;;;;;5.80;64.50;;;;;;4994988;28;19910;-57
2022/03/14 02:48:50;;;;;;;;;;;5.70;64.50;;;;;;4995034;28;19956;-59
2022/03/14 02:51:17;;;;;;;;;;;5.50;65.10;;;;;;4994773;28;19910;-59
2022/03/14 02:53:42;;;;;;;;;;;5.40;65.40;;;;;;4994867;28;19917;-57
2022/03/14 02:56:08;;;;;;;;;;;5.40;66.10;;;;;;4995267;28;19914;-57
2022/03/14 02:58:38;;;;;;;;;;;5.20;66.30;;;;;;4994936;28;20374;-57
2022/03/14 03:01:04;;;;;;;;;;;5.20;67.10;;;;;;4995001;28;19922;-58
2022/03/14 03:03:31;;;;;;;;;;;5.20;67.60;;;;;;4994961;28;19909;-59
2022/03/14 03:05:57;;;;;;;;;;;5.30;67.60;;;;;;4998056;28;20354;-59
2022/03/14 03:08:23;;;;;;;;;;;5.40;67.40;;;;;;4997178;28;19941;-58
2022/03/14 03:10:49;;;;;;;;;;;5.50;67.00;;;;;;4995091;28;20000;-59
2022/03/14 03:13:15;;;;;;;;;;;5.40;67.10;;;;;;4994699;28;19910;-59
2022/03/14 03:15:41;;;;;;;;;;;5.30;67.60;;;;;;4994517;28;20266;-58
2022/03/14 03:18:08;;;;;;;;;;;5.30;67.70;;;;;;4994602;28;20286;-58
2022/03/14 03:20:34;;;;;;;;;;;5.20;68.00;;;;;;4994668;28;19921;-57
2022/03/14 03:23:00;;;;;;;;;;;5.30;68.50;;;;;;4994274;28;20020;-59
2022/03/14 03:25:26;;;;;;;;;;;5.40;68.20;;;;;;4994396;28;20012;-58
2022/03/14 03:27:52;;;;;;;;;;;5.50;68.00;;;;;;4994648;28;20373;-58
2022/03/14 03:30:17;;;;;;;;;;;5.40;68.00;;;;;;4994336;28;19917;-57
2022/03/14 03:32:43;;;;;;;;;;;5.30;68.50;;;;;;4994454;28;20078;-61
2022/03/14 03:35:08;;;;;;;;;;;5.30;68.60;;;;;;4994544;28;19961;-58
2022/03/14 03:37:34;;;;;;;;;;;5.20;68.60;;;;;;4994061;28;20377;-58
2022/03/14 03:40:00;;;;;;;;;;;5.10;69.20;;;;;;4994736;28;19914;-59
2022/03/14 03:42:25;;;;;;;;;;;5.10;69.80;;;;;;4994056;28;20058;-58
2022/03/14 03:44:51;;;;;;;;;;;5.00;70.00;;;;;;4994550;28;19917;-59
2022/03/14 03:47:16;;;;;;;;;;;5.00;70.40;;;;;;4994382;28;19910;-59
2022/03/14 03:49:42;;;;;;;;;;;4.80;70.70;;;;;;4997646;28;19910;-61
2022/03/14 03:52:08;;;;;;;;;;;4.90;71.00;;;;;;4998264;28;19910;-58
2022/03/14 03:54:33;;;;;;;;;;;4.90;71.10;;;;;;4998748;28;19909;-59
2022/03/14 03:56:59;;;;;;;;;;;5.00;70.90;;;;;;4998650;28;20310;-60
2022/03/14 03:59:25;;;;;;;;;;;5.20;70.00;;;;;;4998376;28;19917;-58
2022/03/14 04:01:52;;;;;;;;;;;5.40;69.30;;;;;;4998246;28;19917;-59
2022/03/14 04:04:18;;;;;;;;;;;5.50;68.60;;;;;;4998136;28;19913;-59
2022/03/14 04:06:44;;;;;;;;;;;5.60;68.10;;;;;;4997891;28;20281;-58
2022/03/14 04:09:10;;;;;;;;;;;5.60;68.70;;;;;;4998138;28;19941;-62
2022/03/14 04:11:36;;;;;;;;;;;5.60;68.00;;;;;;4998014;28;20377;-58
2022/03/14 04:14:02;;;;;;;;;;;5.60;68.30;;;;;;4997984;28;19910;-59
2022/03/14 04:16:29;;;;;;;;;;;5.60;68.50;;;;;;4998095;28;19917;-59
2022/03/14 04:18:55;;;;;;;;;;;5.70;68.20;;;;;;4997545;28;19920;-58
2022/03/14 04:21:20;;;;;;;;;;;5.80;67.60;;;;;;4997509;28;20008;-58
2022/03/14 04:23:46;;;;;;;;;;;5.70;67.60;;;;;;4997834;28;19914;-59
2022/03/14 04:26:11;;;;;;;;;;;5.60;67.90;;;;;;4997854;28;19921;-57
2022/03/14 04:28:39;;;;;;;;;;;5.60;68.20;;;;;;4997479;28;19910;-59
2022/03/14 04:31:07;;;;;;;;;;;5.70;68.00;;;;;;4997837;28;20285;-58
2022/03/14 04:33:33;;;;;;;;;;;5.80;67.80;;;;;;4997820;28;19910;-58
2022/03/14 04:35:59;;;;;;;;;;;5.70;67.60;;;;;;4997552;28;20361;-58
2022/03/14 04:38:25;;;;;;;;;;;5.60;67.90;;;;;;4998245;28;20441;-57
2022/03/14 04:40:51;;;;;;;;;;;5.50;68.20;;;;;;4997307;28;19941;-58
2022/03/14 04:43:17;;;;;;;;;;;5.50;68.60;;;;;;4997472;28;19925;-60
2022/03/14 04:45:43;;;;;;;;;;;5.40;69.00;;;;;;4997967;28;19909;-72
2022/03/14 04:48:08;;;;;;;;;;;5.30;69.60;;;;;;4999051;28;19917;-70
2022/03/14 04:50:35;;;;;;;;;;;5.30;70.30;;;;;;4999039;28;20224;-70
2022/03/14 04:53:01;;;;;;;;;;;5.20;70.70;;;;;;4998071;28;20381;-71
2022/03/14 04:55:26;;;;;;;;;;;5.30;70.60;;;;;;4997558;28;20008;-71
2022/03/14 04:57:52;;;;;;;;;;;5.30;70.40;;;;;;4997335;28;19968;-71
2022/03/14 05:00:17;;;;;;;;;;;5.30;70.60;;;;;;4996623;28;19972;-69
2022/03/14 05:02:43;;;;;;;;;;;5.30;70.50;;;;;;4997157;28;19914;-70
2022/03/14 05:05:12;;;;;;;;;;;5.30;70.40;;;;;;4996821;28;19910;-62
2022/03/14 05:07:38;;;;;;;;;;;5.40;70.10;;;;;;4997154;28;19917;-61
2022/03/14 05:10:06;;;;;;;;;;;5.40;70.10;;;;;;4996937;28;19914;-64
2022/03/14 05:12:32;;;;;;;;;;;5.50;70.00;;;;;;4996773;28;19910;-65
2022/03/14 05:14:57;;;;;;;;;;;5.50;69.80;;;;;;4997178;28;19910;-66
2022/03/14 05:17:23;;;;;;;;;;;5.50;70.20;;;;;;4996751;28;19909;-65
2022/03/14 05:19:49;;;;;;;;;;;5.60;70.30;;;;;;4996822;28;20421;-67
2022/03/14 05:22:15;;;;;;;;;;;5.70;70.00;;;;;;4996382;28;19918;-61
2022/03/14 05:24:40;;;;;;;;;;;5.90;69.40;;;;;;4996728;28;19956;-67
2022/03/14 05:27:06;;;;;;;;;;;5.90;69.10;;;;;;4996567;28;19910;-59
2022/03/14 05:29:32;;;;;;;;;;;5.90;69.00;;;;;;4996688;28;19910;-57
2022/03/14 05:31:58;;;;;;;;;;;6.00;68.70;;;;;;4996406;28;19982;-67
2022/03/14 05:34:23;;;;;;;;;;;6.00;68.80;;;;;;4996186;28;20338;-67
2022/03/14 05:36:49;;;;;;;;;;;6.00;68.80;;;;;;4996286;28;19922;-70
2022/03/14 05:39:14;;;;;;;;;;;6.00;69.20;;;;;;4996303;28;20381;-69
2022/03/14 05:41:40;;;;;;;;;;;5.90;69.40;;;;;;4996243;28;19917;-63
2022/03/14 05:44:06;;;;;;;;;;;5.90;69.50;;;;;;4996234;28;19910;-69
2022/03/14 05:46:32;;;;;;;;;;;5.90;69.50;;;;;;4996334;28;20345;-69
2022/03/14 05:48:57;;;;;;;;;;;5.80;70.10;;;;;;4996194;28;19917;-65
2022/03/14 05:51:23;;;;;;;;;;;5.80;70.30;;;;;;4997574;28;19974;-69
2022/03/14 05:53:48;;;;;;;;;;;5.80;70.40;;;;;;5001375;28;19910;-62
2022/03/14 05:56:14;;;;;;;;;;;5.70;70.60;;;;;;4996092;28;19956;-65
2022/03/14 05:58:40;;;;;;;;;;;5.70;70.50;;;;;;4995960;28;19916;-65
2022/03/14 06:01:06;;;;;;;;;;;5.80;70.70;;;;;;4995729;28;19918;-63
2022/03/14 06:03:32;;;;;;;;;;;5.80;71.00;;;;;;4995375;28;19970;-68
2022/03/14 06:05:57;;;;;;;;;;;5.90;70.80;;;;;;4995587;28;20274;-71
2022/03/14 06:08:23;;;;;;;;;;;6.10;69.40;;;;;;4995553;28;19913;-66
2022/03/14 06:10:48;;;;;;;;;;;6.30;68.50;;;;;;4995013;28;20004;-67
2022/03/14 06:13:14;;;;;;;;;;;6.50;67.40;;;;;;4995717;28;19910;-60
2022/03/14 06:15:40;;;;;;;;;;;6.60;66.80;;;;;;4995567;28;20013;-65
2022/03/14 06:18:06;;;;;;;;;;;6.70;66.00;;;;;;4995344;28;19916;-58
2022/03/14 06:20:31;;;;;;;;;;;6.90;65.70;;;;;;4995574;28;19910;-61
2022/03/14 06:22:57;;;;;;;;;;;6.90;66.10;;;;;;4995553;28;19910;-61
2022/03/14 06:25:23;;;;;;;;;;;6.90;65.70;;;;;;4995275;28;20243;-60
2022/03/14 06:27:48;;;;;;;;;;;7.10;65.10;;;;;;4995436;28;19910;-59
2022/03/14 06:30:14;;;;;;;;;;;7.10;64.80;;;;;;4995276;28;19914;-59
2022/03/14 06:32:41;;;;;;;;;;;7.10;66.50;;;;;;4995090;28;19957;-60
2022/03/14 06:35:08;;;;;;;;;;;7.40;67.90;;;;;;4995133;28;19910;-59
2022/03/14 06:37:34;;;;;;;;;;;7.70;67.50;;;;;;4993948;28;19976;-58
2022/03/14 06:40:00;;;;;;;;;;;7.90;64.50;;;;;;4995310;28;19945;-59
2022/03/14 06:42:26;;;;;;;;;;;8.10;64.90;;;;;;4994849;28;19949;-59
2022/03/14 06:44:52;;;;;;;;;;;8.50;64.80;;;;;;4995321;28;19956;-57
2022/03/14 06:47:18;;;;;;;;;;;8.80;62.10;;;;;;4994452;28;20246;-59
2022/03/14 06:49:44;;;;;;;;;;;8.90;60.40;;;;;;4995258;28;19932;-55
2022/03/14 06:52:14;;;;;;;;;;;9.00;60.00;;;;;;4994609;28;20334;-57
2022/03/14 06:54:40;;;;;;;;;;;8.70;60.10;;;;;;4994922;28;19910;-64
2022/03/14 06:57:06;;;;;;;;;;;8.70;60.20;;;;;;4995035;28;19932;-65
2022/03/14 06:59:32;;;;;;;;;;;8.60;60.20;;;;;;4994941;28;19913;-67
2022/03/14 07:01:58;;;;;;;;;;;8.50;60.90;;;;;;4994440;28;19925;-79
2022/03/14 07:04:23;;;;;;;;;;;8.70;60.30;;;;;;4994996;28;19932;-79
2022/03/14 07:06:49;;;;;;;;;;;8.80;59.40;;;;;;4994831;28;19910;-58
2022/03/14 07:09:14;;;;;;;;;;;8.80;59.80;;;;;;4994258;28;19922;-58
2022/03/14 07:11:40;;;;;;;;;;;8.70;60.00;;;;;;4988713;28;19953;-59
2022/03/14 07:14:06;;;;;;;;;;;8.60;60.10;;;;;;4994066;28;19997;-60
2022/03/14 07:16:32;;;;;;;;;;;8.60;60.10;;;;;;4993929;28;19914;-66
2022/03/14 07:18:57;;;;;;;;;;;8.60;60.40;;;;;;4994199;28;20075;-59
2022/03/14 07:21:28;;;;;;;;;;;8.60;60.40;;;;;;4994312;28;20442;-58
2022/03/14 07:23:57;;;;;;;;;;;8.50;60.70;;;;;;4994252;28;19913;-70
2022/03/14 07:26:23;;;;;;;;;;;8.50;61.50;;;;;;4994371;28;19919;-58
2022/03/14 07:28:49;;;;;;;;;;;8.50;62.70;;;;;;4994341;28;19917;-60
2022/03/14 07:31:15;;;;;;;;;;;8.30;63.60;;;;;;4994207;28;19914;-65
2022/03/14 07:33:43;;;;;;;;;;;8.30;64.50;;;;;;4988634;28;19941;-57
2022/03/14 07:36:09;;;;;;;;;;;8.30;64.10;;;;;;4992741;28;19918;-64
2022/03/14 07:38:34;;;;;;;;;;;8.50;63.80;;;;;;4994237;28;19921;-57
2022/03/14 07:41:00;;;;;;;;;;;8.60;63.50;;;;;;4993603;28;19984;-57
2022/03/14 07:43:25;;;;;;;;;;;8.70;63.00;;;;;;4994021;28;19938;-60
2022/03/14 07:45:51;;;;;;;;;;;8.70;62.80;;;;;;4994105;28;20366;-56
2022/03/14 07:48:17;;;;;;;;;;;8.80;63.00;;;;;;4994132;28;19937;-57
2022/03/14 07:50:42;;;;;;;;;;;8.80;62.70;;;;;;4994125;28;19964;-56
2022/03/14 07:53:08;;;;;;;;;;;9.00;62.50;;;;;;4993469;28;19914;-56
2022/03/14 07:55:34;;;;;;;;;;;9.10;62.30;;;;;;4993603;28;19914;-56
2022/03/14 07:57:59;;;;;;;;;;;9.10;61.60;;;;;;4993612;28;19910;-59
2022/03/14 08:00:25;;;;;;;;;;;9.00;61.40;;;;;;4993310;28;20530;-59
2022/03/14 08:02:50;;;;;;;;;;;9.10;61.20;;;;;;4993474;28;19956;-60
2022/03/14 08:05:17;;;;;;;;;;;9.10;60.40;;;;;;4993411;28;19917;-61
2022/03/14 08:07:46;;;;;;;;;;;9.20;59.70;;;;;;4993846;28;20261;-56
2022/03/14 08:10:13;;;;;;;;;;;9.20;59.30;;;;;;4991181;28;19921;-55
2022/03/14 08:12:46;;;;;;;;;;;9.20;58.40;;;;;;4993720;28;20360;-56
2022/03/14 08:15:32;;;;;;;;;;;9.20;59.00;;;;;;4993795;28;20373;-59
2022/03/14 08:17:59;;;;;;;;;;;9.30;59.20;;;;;;4993848;28;20358;-58
2022/03/14 08:20:26;;;;;;;;;;;9.40;58.60;;;;;;4993792;28;19916;-72
2022/03/14 08:22:53;;;;;;;;;;;9.40;58.20;;;;;;4993772;28;19953;-59
2022/03/14 08:25:18;;;;;;;;;;;9.50;58.30;;;;;;4993269;28;20004;-55
2022/03/14 08:27:44;;;;;;;;;;;9.50;58.00;;;;;;4994046;28;19964;-56
2022/03/14 08:30:10;;;;;;;;;;;9.50;58.20;;;;;;4993993;28;20371;-57
2022/03/14 08:32:36;;;;;;;;;;;9.50;58.40;;;;;;4993497;28;19917;-58
2022/03/14 08:35:07;;;;;;;;;;;9.50;58.10;;;;;;4995621;28;20395;-55
2022/03/14 08:37:36;;;;;;;;;;;9.60;58.00;;;;;;4997302;28;19926;-58
2022/03/14 08:40:03;;;;;;;;;;;9.70;58.30;;;;;;4996583;28;19910;-56
2022/03/14 08:42:29;;;;;;;;;;;9.80;57.90;;;;;;4997615;28;19925;-61
2022/03/14 08:44:54;;;;;;;;;;;9.70;57.60;;;;;;4997154;28;19909;-58
2022/03/14 08:47:20;;;;;;;;;;;9.80;57.60;;;;;;4997332;28;19913;-57
2022/03/14 08:49:46;;;;;;;;;;;10.00;57.30;;;;;;4997065;28;19917;-56
2022/03/14 08:52:11;;;;;;;;;;;10.00;56.90;;;;;;4996980;28;19920;-57
2022/03/14 08:54:37;;;;;;;;;;;10.00;56.80;;;;;;4996960;28;19910;-65
2022/03/14 08:57:02;;;;;;;;;;;10.00;56.30;;;;;;4996924;28;19909;-65
2022/03/14 08:59:28;;;;;;;;;;;9.80;56.60;;;;;;4997039;28;19953;-56
2022/03/14 09:01:54;;;;;;;;;;;9.80;57.00;;;;;;4996898;28;19928;-55
2022/03/14 09:04:19;;;;;;;;;;;9.70;57.40;;;;;;4996896;28;20309;-55
2022/03/14 09:06:45;;;;;;;;;;;9.70;57.50;;;;;;4996773;28;20269;-57
2022/03/14 09:09:12;;;;;;;;;;;9.90;57.10;;;;;;4996555;28;20334;-57
2022/03/14 09:11:39;;;;;;;;;;;10.00;56.80;;;;;;4996661;28;19910;-56
2022/03/14 09:14:04;;;;;;;;;;;10.10;56.70;;;;;;4996656;28;20403;-58
2022/03/14 09:16:30;;;;;;;;;;;10.10;56.30;;;;;;4996485;28;19910;-71
2022/03/14 09:18:56;;;;;;;;;;;10.10;56.70;;;;;;4996969;28;19910;-57
2022/03/14 09:21:21;;;;;;;;;;;10.10;56.90;;;;;;4996704;28;20354;-56
2022/03/14 09:23:47;;;;;;;;;;;10.20;56.70;;;;;;4996652;28;19910;-59
2022/03/14 09:26:12;;;;;;;;;;;10.20;56.40;;;;;;4996383;28;19917;-56
2022/03/14 09:28:44;;;;;;;;;;;10.10;56.20;;;;;;4996844;28;19917;-70
2022/03/14 09:31:11;;;;;;;;;;;10.10;56.30;;;;;;4996621;28;19945;-60
2022/03/14 09:33:36;;;;;;;;;;;10.20;57.10;;;;;;4996493;28;19909;-59
2022/03/14 09:36:02;;;;;;;;;;;10.40;56.30;;;;;;4996072;28;20000;-63
2022/03/14 09:38:29;;;;;;;;;;;10.60;55.70;;;;;;4996039;28;19917;-55
2022/03/14 09:40:55;;;;;;;;;;;10.60;55.00;;;;;;4996531;28;19991;-57
2022/03/14 09:43:22;;;;;;;;;;;10.70;54.70;;;;;;4995998;28;19917;-56
2022/03/14 09:45:48;;;;;;;;;;;10.60;55.00;;;;;;4996371;28;20358;-57
2022/03/14 09:48:15;;;;;;;;;;;10.70;55.60;;;;;;4996295;28;20223;-57
2022/03/14 09:50:44;;;;;;;;;;;10.90;54.80;;;;;;4996999;28;19917;-60
2022/03/14 09:53:11;;;;;;;;;;;11.00;54.00;;;;;;4998135;28;19913;-61
2022/03/14 09:55:44;;;;;;;;;;;11.00;53.40;;;;;;4996920;28;19910;-57
2022/03/14 09:58:11;;;;;;;;;;;11.00;53.40;;;;;;4996155;28;19910;-57
2022/03/14 10:00:36;;;;;;;;;;;10.90;53.80;;;;;;4996092;28;19910;-60
2022/03/14 10:03:03;;;;;;;;;;;10.80;54.10;;;;;;4995715;28;19996;-63
2022/03/14 10:05:29;;;;;;;;;;;10.70;54.20;;;;;;4995581;28;19910;-56
2022/03/14 10:07:54;;;;;;;;;;;10.70;54.60;;;;;;4995625;28;19921;-60
2022/03/14 10:10:20;;;;;;;;;;;10.70;54.10;;;;;;4995741;28;19929;-59
2022/03/14 10:12:52;;;;;;;;;;;10.60;54.30;;;;;;4995680;28;19910;-68
2022/03/14 10:15:18;;;;;;;;;;;10.50;54.90;;;;;;4995695;28;20004;-61
2022/03/14 10:17:44;;;;;;;;;;;10.70;55.10;;;;;;4995425;28;19921;-57
2022/03/14 10:20:10;;;;;;;;;;;10.70;54.10;;;;;;4995335;28;19910;-65
2022/03/14 10:22:37;;;;;;;;;;;10.80;54.30;;;;;;4995252;28;20024;-62
2022/03/14 10:25:23;;;;;;;;;;;10.90;54.00;;;;;;4995477;28;19910;-56
2022/03/14 10:27:54;;;;;;;;;;;10.60;54.20;;;;;;4995170;28;20354;-55
2022/03/14 10:30:29;;;;;;;;;;;10.60;55.00;;;;;;4995014;28;19924;-61
2022/03/14 10:33:10;;;;;;;;;;;10.60;54.80;;;;;;4995208;28;19910;-57
2022/03/14 10:35:37;;;;;;;;;;;10.90;55.10;;;;;;4995036;28;19917;-68
2022/03/14 10:38:04;;;;;;;;;;;11.20;54.40;;;;;;4993629;28;20004;-65
2022/03/14 10:40:33;;;;;;;;;;;11.40;53.50;;;;;;4994611;28;20476;-55
2022/03/14 10:42:58;;;;;;;;;;;11.60;52.90;;;;;;4994981;28;19914;-67
2022/03/14 10:45:24;;;;;;;;;;;11.70;52.50;;;;;;4995330;28;19932;-59
2022/03/14 10:47:54;;;;;;;;;;;11.70;52.30;;;;;;4995045;28;19910;-56
2022/03/14 10:50:30;;;;;;;;;;;11.70;52.10;;;;;;4994852;28;19910;-64
2022/03/14 10:53:02;;;;;;;;;;;11.90;52.50;;;;;;4994813;28;19910;-60
2022/03/14 10:55:34;;;;;;;;;;;11.80;51.40;;;;;;4994649;28;19917;-56
2022/03/14 10:58:06;;;;;;;;;;;11.70;51.80;;;;;;4994270;28;19909;-64
2022/03/14 11:00:50;;;;;;;;;;;11.70;51.70;;;;;;4995100;28;20009;-56
2022/03/14 11:03:29;;;;;;;;;;;11.30;52.10;;;;;;4994604;28;19998;-69
2022/03/14 11:05:58;;;;;;;;;;;11.10;52.60;;;;;;4994589;28;19918;-59
2022/03/14 11:08:31;;;;;;;;;;;11.20;53.00;;;;;;4994638;28;20388;-57
2022/03/14 11:10:57;;;;;;;;;;;11.20;53.20;;;;;;4994891;28;19918;-59
2022/03/14 11:13:23;;;;;;;;;;;11.40;52.70;;;;;;4994237;28;19916;-57
2022/03/14 11:15:49;;;;;;;;;;;11.50;52.60;;;;;;4994345;28;19910;-63
2022/03/14 11:18:16;;;;;;;;;;;11.70;53.00;;;;;;4994498;28;19933;-55
2022/03/14 11:20:42;;;;;;;;;;;11.90;53.00;;;;;;4994437;28;19980;-57
2022/03/14 11:23:09;;;;;;;;;;;12.10;52.40;;;;;;4994335;28;20362;-55
2022/03/14 11:25:37;;;;;;;;;;;12.50;51.40;;;;;;4994407;28;19937;-57
2022/03/14 11:28:03;;;;;;;;;;;12.70;51.00;;;;;;4994539;28;19917;-63
2022/03/14 11:30:29;;;;;;;;;;;12.60;50.30;;;;;;4994420;28;19910;-57
2022/03/14 11:32:57;;;;;;;;;;;12.50;50.50;;;;;;4994185;28;19917;-58
2022/03/14 11:35:23;;;;;;;;;;;12.50;50.10;;;;;;4994487;28;19968;-67
2022/03/14 11:37:49;;;;;;;;;;;12.60;50.20;;;;;;4994285;28;20012;-62
2022/03/14 11:40:15;;;;;;;;;;;12.50;49.50;;;;;;4994634;28;19918;-56
2022/03/14 11:42:40;;;;;;;;;;;12.40;50.30;;;;;;4994522;28;19941;-57
2022/03/14 11:45:07;;;;;;;;;;;12.40;50.40;;;;;;4994286;28;19910;-59
2022/03/14 11:47:33;;;;;;;;;;;12.30;49.70;;;;;;4994255;28;19996;-57
2022/03/14 11:49:59;;;;;;;;;;;12.20;50.90;;;;;;4994418;28;19910;-56
2022/03/14 11:52:35;;;;;;;;;;;11.90;51.10;;;;;;4994142;28;19917;-59
2022/03/14 11:55:02;;;;;;;;;;;12.00;51.00;;;;;;4994290;28;19910;-57
2022/03/14 11:57:35;;;;;;;;;;;12.30;51.00;;;;;;4994186;28;19953;-56
2022/03/14 12:00:20;;;;;;;;;;;12.40;50.40;;;;;;4994092;28;20285;-57
2022/03/14 12:02:46;;;;;;;;;;;12.50;50.60;;;;;;4994044;28;19918;-56
2022/03/14 12:05:11;;;;;;;;;;;12.80;49.70;;;;;;4994337;28;19914;-63
2022/03/14 12:07:37;;;;;;;;;;;12.90;49.40;;;;;;4994316;28;19910;-58
2022/03/14 12:10:21;;;;;;;;;;;13.10;49.00;;;;;;4996054;28;20354;-57
2022/03/14 12:12:51;;;;;;;;;;;13.00;48.40;;;;;;4997697;28;19913;-56
2022/03/14 12:15:37;;;;;;;;;;;12.70;47.70;;;;;;4998039;28;19910;-57
2022/03/14 12:18:28;;;;;;;;;;;12.70;48.50;;;;;;4997871;28;19917;-70
2022/03/14 12:20:55;;;;;;;;;;;12.30;49.70;;;;;;4997570;28;19914;-61
2022/03/14 12:23:25;;;;;;;;;;;12.10;50.40;;;;;;4997638;28;19920;-63
2022/03/14 12:25:50;;;;;;;;;;;12.30;51.00;;;;;;4997552;28;19917;-63
2022/03/14 12:28:31;;;;;;;;;;;12.50;49.80;;;;;;4997611;28;19914;-61
2022/03/14 12:30:58;;;;;;;;;;;12.40;49.70;;;;;;4997475;28;19914;-61
2022/03/14 12:33:34;;;;;;;;;;;12.40;49.10;;;;;;4997384;28;19910;-57
2022/03/14 12:36:23;;;;;;;;;;;12.60;49.50;;;;;;4997320;28;20001;-68
2022/03/14 12:39:09;;;;;;;;;;;13.00;49.50;;;;;;5002182;28;19910;-62
2022/03/14 12:41:39;;;;;;;;;;;13.10;48.30;;;;;;4997346;28;20004;-58
2022/03/14 12:44:18;;;;;;;;;;;13.10;47.60;;;;;;4995856;28;20002;-72
2022/03/14 12:46:44;;;;;;;;;;;13.30;48.80;;;;;;4997231;28;20333;-69
2022/03/14 12:49:10;;;;;;;;;;;13.30;47.40;;;;;;4997538;28;19948;-66
2022/03/14 12:51:38;;;;;;;;;;;13.10;47.20;;;;;;4997199;28;19910;-62
2022/03/14 12:54:04;;;;;;;;;;;13.00;48.70;;;;;;4997045;28;19917;-59
2022/03/14 12:56:30;;;;;;;;;;;12.90;48.90;;;;;;4997009;28;19929;-67
2022/03/14 12:59:00;;;;;;;;;;;12.80;49.30;;;;;;4997095;28;19910;-75
2022/03/14 13:01:27;;;;;;;;;;;12.80;50.20;;;;;;4996935;28;20001;-65
2022/03/14 13:03:52;;;;;;;;;;;12.50;49.90;;;;;;4996950;28;19917;-60
2022/03/14 13:06:27;;;;;;;;;;;12.30;50.30;;;;;;4997033;28;19910;-68
2022/03/14 13:08:52;;;;;;;;;;;12.10;50.80;;;;;;4996919;28;20473;-67
2022/03/14 13:11:18;;;;;;;;;;;12.10;51.20;;;;;;4996598;28;19914;-68
2022/03/14 13:13:44;;;;;;;;;;;12.30;51.10;;;;;;4996877;28;19910;-70
2022/03/14 13:16:13;;;;;;;;;;;12.50;50.10;;;;;;4996800;28;19916;-61
2022/03/14 13:18:48;;;;;;;;;;;12.50;50.30;;;;;;4996647;28;19909;-60
2022/03/14 13:21:19;;;;;;;;;;;12.60;50.60;;;;;;4995749;28;20401;-67
2022/03/14 13:23:45;;;;;;;;;;;12.40;50.40;;;;;;4996845;28;20004;-66
2022/03/14 13:26:11;;;;;;;;;;;12.30;50.70;;;;;;4996553;28;19910;-58
2022/03/14 13:28:38;;;;;;;;;;;12.50;51.20;;;;;;4996658;28;19916;-60
2022/03/14 13:31:04;;;;;;;;;;;12.80;50.60;;;;;;4996247;28;19909;-60
2022/03/14 13:33:33;;;;;;;;;;;12.90;50.20;;;;;;4996354;28;20334;-65
2022/03/14 13:36:09;;;;;;;;;;;13.10;50.30;;;;;;4995991;28;19910;-61
2022/03/14 13:38:36;;;;;;;;;;;13.10;49.20;;;;;;4996314;28;19910;-68
2022/03/14 13:41:12;;;;;;;;;;;13.20;48.80;;;;;;4996101;28;20388;-60
2022/03/14 13:43:39;;;;;;;;;;;13.40;48.10;;;;;;4996187;28;19910;-57
2022/03/14 13:46:27;;;;;;;;;;;13.40;47.90;;;;;;4995994;28;19918;-58
2022/03/14 13:49:02;;;;;;;;;;;13.40;47.90;;;;;;4996046;28;19914;-56
2022/03/14 13:51:32;;;;;;;;;;;13.50;47.30;;;;;;4996123;28;19917;-56
2022/03/14 13:54:07;;;;;;;;;;;13.50;48.10;;;;;;4995796;28;19917;-58
2022/03/14 13:56:38;;;;;;;;;;;13.10;47.50;;;;;;4995993;28;19910;-58
2022/03/14 13:59:03;;;;;;;;;;;12.70;49.30;;;;;;4995924;28;20431;-57
2022/03/14 14:01:42;;;;;;;;;;;12.80;49.90;;;;;;4995738;28;19917;-59
2022/03/14 14:04:16;;;;;;;;;;;12.90;49.80;;;;;;4994250;28;19964;-58
2022/03/14 14:06:45;;;;;;;;;;;13.00;49.60;;;;;;4995981;28;19910;-56
2022/03/14 14:09:18;;;;;;;;;;;13.00;48.90;;;;;;4995590;28;19910;-57
2022/03/14 14:11:58;;;;;;;;;;;12.70;49.90;;;;;;4995667;28;20380;-56
2022/03/14 14:14:25;;;;;;;;;;;12.80;50.80;;;;;;4995503;28;19914;-55
2022/03/14 14:16:51;;;;;;;;;;;12.80;49.60;;;;;;4995903;28;19910;-55
2022/03/14 14:19:17;;;;;;;;;;;12.90;50.10;;;;;;4995447;28;20325;-56
2022/03/14 14:21:53;;;;;;;;;;;13.00;49.90;;;;;;4995371;28;19968;-56
2022/03/14 14:24:22;;;;;;;;;;;13.20;49.40;;;;;;4995503;28;20400;-56
2022/03/14 14:26:48;;;;;;;;;;;13.30;48.50;;;;;;4995984;28;20004;-57